Time;durP1;ratioP1;P1;durP2;ratioP2;P2;SDS_P1;SDS_P2;PMS_P1;PMS_P2;Temp;Humidity;BMP_temperature;BMP_pressure;BME280_temperature;BME280_humidity;BME280_pressure;Samples;Min_cycle;Max_cycle;Signal;HPM_P1;HPM_P2
2022/09/09 00:01:04;;;;;;;0.10;0.10;;;15.60;99.90;;;;;;4965159;28;1022397;-70
2022/09/09 00:03:51;;;;;;;0.10;0.10;;;15.60;99.90;;;;;;5003278;28;20158;-70
2022/09/09 00:06:35;;;;;;;0.60;0.60;;;15.60;99.90;;;;;;4997819;28;20112;-70
2022/09/09 00:09:18;;;;;;;0.73;0.73;;;15.60;99.90;;;;;;5008072;28;20548;-70
2022/09/09 00:11:53;;;;;;;1.63;0.70;;;15.60;99.90;;;;;;5007306;28;20046;-70
2022/09/09 00:14:37;;;;;;;0.45;0.45;;;15.60;99.90;;;;;;4989563;28;20050;-71
2022/09/09 00:17:30;;;;;;;0.00;0.00;;;15.60;99.90;;;;;;5009452;28;20060;-70
2022/09/09 00:20:25;;;;;;;0.10;0.10;;;15.60;99.90;;;;;;5002781;28;20451;-70
2022/09/09 00:23:11;;;;;;;0.55;0.55;;;15.60;99.90;;;;;;4995288;28;20066;-69
2022/09/09 00:26:00;;;;;;;0.10;0.10;;;15.60;99.90;;;;;;5001576;28;20042;-70
2022/09/09 00:28:30;;;;;;;1.58;0.75;;;15.60;99.90;;;;;;4994436;28;20042;-70
2022/09/09 00:30:57;;;;;;;0.10;0.10;;;15.60;99.90;;;;;;4996596;28;20050;-70
2022/09/09 00:33:24;;;;;;;0.20;0.20;;;15.60;99.90;;;;;;5003311;28;20057;-71
2022/09/09 00:36:02;;;;;;;0.10;0.10;;;15.60;99.90;;;;;;5007405;28;20072;-71
2022/09/09 00:38:36;;;;;;;0.10;0.10;;;15.60;99.90;;;;;;4997271;28;20387;-70
2022/09/09 00:41:17;;;;;;;1.77;0.30;;;15.60;99.90;;;;;;4997967;28;20085;-71
2022/09/09 00:43:56;;;;;;;0.10;0.10;;;15.50;99.90;;;;;;5006727;28;20050;-70
2022/09/09 00:46:53;;;;;;;0.00;0.00;;;15.50;99.90;;;;;;5006469;28;20050;-70
2022/09/09 00:49:40;;;;;;;0.25;0.25;;;15.50;99.90;;;;;;4996579;28;20338;-70
2022/09/09 00:52:41;;;;;;;0.00;0.00;;;15.50;99.90;;;;;;5004817;28;20065;-70
2022/09/09 00:55:32;;;;;;;0.45;0.45;;;15.50;99.90;;;;;;4986408;28;20055;-71
2022/09/09 00:57:58;;;;;;;1.33;0.77;;;15.50;99.90;;;;;;4990809;28;20065;-70
2022/09/09 01:00:35;;;;;;;0.20;0.20;;;15.50;99.90;;;;;;5000401;28;20054;-70
2022/09/09 01:03:24;;;;;;;1.92;0.38;;;15.40;99.90;;;;;;5012865;28;20041;-70
2022/09/09 01:06:03;;;;;;;0.10;0.10;;;15.40;99.90;;;;;;5001045;28;20136;-70
2022/09/09 01:08:43;;;;;;;0.28;0.28;;;15.40;99.90;;;;;;4995173;28;20125;-70
2022/09/09 01:11:29;;;;;;;0.10;0.10;;;15.40;99.90;;;;;;4992902;28;20045;-70
2022/09/09 01:14:17;;;;;;;0.52;0.52;;;15.40;99.90;;;;;;4996504;28;20034;-70
2022/09/09 01:16:44;;;;;;;0.05;0.05;;;15.40;99.90;;;;;;5011232;28;20074;-70
2022/09/09 01:19:19;;;;;;;0.40;0.20;;;15.40;99.90;;;;;;5011292;28;20073;-70
2022/09/09 01:21:56;;;;;;;0.00;0.00;;;15.40;99.90;;;;;;5000388;28;20039;-70
2022/09/09 01:24:36;;;;;;;0.00;0.00;;;15.40;99.90;;;;;;5008958;28;20073;-70
2022/09/09 01:27:05;;;;;;;0.10;0.10;;;15.50;99.90;;;;;;5008107;28;20466;-70
2022/09/09 01:29:31;;;;;;;0.10;0.10;;;15.50;99.90;;;;;;5007064;28;20053;-70
2022/09/09 01:32:19;;;;;;;0.20;0.20;;;15.50;99.90;;;;;;5004351;28;20103;-70
2022/09/09 01:34:46;;;;;;;0.20;0.20;;;15.50;99.90;;;;;;5003716;28;20491;-70
2022/09/09 01:37:12;;;;;;;0.10;0.10;;;15.50;99.90;;;;;;4998777;28;20042;-70
2022/09/09 01:39:40;;;;;;;0.22;0.22;;;15.50;99.90;;;;;;5003132;28;20046;-70
2022/09/09 01:42:09;;;;;;;0.00;0.00;;;15.50;99.90;;;;;;5004929;28;20401;-70
2022/09/09 01:44:38;;;;;;;0.22;0.22;;;15.50;99.90;;;;;;5009307;28;20498;-70
2022/09/09 01:47:04;;;;;;;0.00;0.00;;;15.50;99.90;;;;;;5003533;28;20076;-70
2022/09/09 01:49:30;;;;;;;0.30;0.30;;;15.50;99.90;;;;;;4998989;28;20041;-70
2022/09/09 01:51:57;;;;;;;0.10;0.10;;;15.40;99.90;;;;;;5009690;28;20042;-70
2022/09/09 01:54:26;;;;;;;0.00;0.00;;;15.40;99.90;;;;;;5009756;28;20088;-70
2022/09/09 01:57:09;;;;;;;0.10;0.10;;;15.30;99.90;;;;;;4997059;28;20101;-70
2022/09/09 02:00:06;;;;;;;0.10;0.10;;;15.40;99.90;;;;;;4994780;28;20703;-70
2022/09/09 02:03:00;;;;;;;0.00;0.00;;;15.40;99.90;;;;;;5011898;28;20046;-70
2022/09/09 02:05:28;;;;;;;0.10;0.10;;;15.30;99.90;;;;;;5009649;28;20119;-70
2022/09/09 02:08:23;;;;;;;0.10;0.10;;;15.40;99.90;;;;;;4995220;28;20061;-70
2022/09/09 02:11:07;;;;;;;0.30;0.30;;;15.40;99.90;;;;;;4988843;28;20062;-70
2022/09/09 02:13:36;;;;;;;0.10;0.10;;;15.30;99.90;;;;;;4992457;28;20132;-70
2022/09/09 02:16:12;;;;;;;0.10;0.10;;;15.30;99.90;;;;;;4998886;28;20078;-70
2022/09/09 02:18:52;;;;;;;0.63;0.50;;;15.30;99.90;;;;;;5005427;28;20401;-70
2022/09/09 02:21:18;;;;;;;0.08;0.08;;;15.30;99.90;;;;;;5007364;28;20037;-70
2022/09/09 02:23:46;;;;;;;0.30;0.30;;;15.20;99.90;;;;;;5002771;28;20077;-70
2022/09/09 02:26:19;;;;;;;0.20;0.20;;;15.30;99.90;;;;;;5007346;28;20037;-70
2022/09/09 02:28:46;;;;;;;0.40;0.40;;;15.30;99.90;;;;;;4996702;28;20509;-70
2022/09/09 02:31:14;;;;;;;0.10;0.10;;;15.20;99.90;;;;;;5006173;28;20510;-70
2022/09/09 02:33:45;;;;;;;0.10;0.10;;;15.20;99.90;;;;;;4991876;28;20494;-70
2022/09/09 02:36:13;;;;;;;0.13;0.13;;;15.20;99.90;;;;;;5004883;28;20100;-71
2022/09/09 02:38:50;;;;;;;0.10;0.10;;;15.20;99.90;;;;;;5007037;28;20050;-70
2022/09/09 02:41:21;;;;;;;0.40;0.40;;;15.10;99.90;;;;;;4994827;28;20044;-70
2022/09/09 02:43:47;;;;;;;0.38;0.35;;;15.10;99.90;;;;;;5001485;28;20429;-70
2022/09/09 02:46:39;;;;;;;0.45;0.30;;;15.10;99.90;;;;;;5008661;28;20040;-70
2022/09/09 02:49:28;;;;;;;0.25;0.25;;;15.10;99.90;;;;;;5007579;28;20049;-70
2022/09/09 02:52:08;;;;;;;0.10;0.10;;;15.20;99.90;;;;;;4994235;28;20045;-70
2022/09/09 02:54:37;;;;;;;0.05;0.05;;;15.20;99.90;;;;;;5008024;28;20061;-70
2022/09/09 02:57:21;;;;;;;0.03;0.03;;;15.10;99.90;;;;;;5009490;28;20072;-70
2022/09/09 02:59:47;;;;;;;;;;;15.10;99.90;;;;;;4990090;28;20070;-70
2022/09/09 03:02:13;;;;;;;4.18;0.70;;;15.10;99.90;;;;;;4991576;28;19928;-70
2022/09/09 03:04:41;;;;;;;0.13;0.13;;;15.10;99.90;;;;;;5007424;28;20049;-70
2022/09/09 03:07:07;;;;;;;0.10;0.10;;;15.10;99.90;;;;;;5008349;28;20467;-70
2022/09/09 03:09:32;;;;;;;0.20;0.20;;;15.00;99.90;;;;;;5000781;28;20486;-70
2022/09/09 03:11:58;;;;;;;0.20;0.20;;;15.10;99.90;;;;;;4995863;28;20042;-70
2022/09/09 03:14:25;;;;;;;0.00;0.00;;;15.00;99.90;;;;;;5007998;28;20071;-70
2022/09/09 03:16:51;;;;;;;0.10;0.10;;;15.00;99.90;;;;;;5006991;28;20057;-70
2022/09/09 03:19:18;;;;;;;0.20;0.20;;;14.90;99.90;;;;;;4994007;28;20049;-70
2022/09/09 03:21:44;;;;;;;0.25;0.25;;;15.00;99.90;;;;;;5005015;28;20773;-70
2022/09/09 03:24:10;;;;;;;1.13;1.02;;;15.00;99.90;;;;;;4996645;28;20053;-70
2022/09/09 03:26:37;;;;;;;0.00;0.00;;;15.00;99.90;;;;;;5008243;28;20042;-69
2022/09/09 03:29:06;;;;;;;0.40;0.40;;;15.00;99.90;;;;;;4997235;28;20043;-70
2022/09/09 03:31:36;;;;;;;0.20;0.20;;;15.10;99.90;;;;;;5009268;28;20042;-70
2022/09/09 03:34:02;;;;;;;0.20;0.20;;;15.10;99.90;;;;;;5009379;28;20054;-70
2022/09/09 03:36:28;;;;;;;0.00;0.00;;;15.10;99.90;;;;;;5001076;28;20302;-70
2022/09/09 03:38:54;;;;;;;0.10;0.10;;;15.10;99.90;;;;;;4996163;28;20065;-70
2022/09/09 03:41:23;;;;;;;0.05;0.05;;;15.10;99.90;;;;;;5006539;28;20046;-71
2022/09/09 03:43:52;;;;;;;0.35;0.35;;;15.10;99.90;;;;;;5002238;28;20089;-70
2022/09/09 03:46:20;;;;;;;0.10;0.10;;;15.10;99.90;;;;;;4994382;28;21107;-71
2022/09/09 03:48:46;;;;;;;0.05;0.05;;;15.20;99.90;;;;;;5004350;28;20045;-70
2022/09/09 03:51:12;;;;;;;0.10;0.10;;;15.20;99.90;;;;;;5002684;28;20091;-70
2022/09/09 03:53:38;;;;;;;0.10;0.10;;;15.20;99.90;;;;;;5008203;28;20042;-70
2022/09/09 03:56:06;;;;;;;0.00;0.00;;;15.20;99.90;;;;;;4995392;28;20057;-71
2022/09/09 03:58:33;;;;;;;0.10;0.10;;;15.10;99.90;;;;;;4995910;28;20406;-71
2022/09/09 04:01:01;;;;;;;0.00;0.00;;;15.10;99.90;;;;;;5000267;28;20053;-71
2022/09/09 04:03:27;;;;;;;0.10;0.10;;;15.20;99.90;;;;;;5007889;28;20489;-71
2022/09/09 04:05:54;;;;;;;0.10;0.10;;;15.20;99.90;;;;;;5000213;28;20056;-71
2022/09/09 04:08:21;;;;;;;0.05;0.05;;;15.10;99.90;;;;;;5001086;28;20070;-71
2022/09/09 04:10:48;;;;;;;0.08;0.08;;;15.10;99.90;;;;;;5000502;28;20521;-70
2022/09/09 04:13:16;;;;;;;0.00;0.00;;;15.10;99.90;;;;;;4989439;28;20050;-70
2022/09/09 04:15:43;;;;;;;0.20;0.20;;;15.10;99.90;;;;;;4998734;28;20046;-70
2022/09/09 04:18:08;;;;;;;0.10;0.10;;;15.10;99.90;;;;;;5004189;28;20037;-70
2022/09/09 04:20:35;;;;;;;0.28;0.28;;;15.10;99.90;;;;;;4998826;28;20034;-70
2022/09/09 04:23:00;;;;;;;0.00;0.00;;;15.10;99.90;;;;;;4998967;28;20046;-70
2022/09/09 04:25:26;;;;;;;0.10;0.10;;;15.10;99.90;;;;;;5008925;28;20390;-70
2022/09/09 04:27:56;;;;;;;0.10;0.10;;;15.10;99.90;;;;;;5007045;28;20038;-70
2022/09/09 04:30:22;;;;;;;0.10;0.10;;;15.10;99.90;;;;;;5004034;28;20053;-70
2022/09/09 04:32:47;;;;;;;0.00;0.00;;;15.10;99.90;;;;;;5010323;28;20494;-70
2022/09/09 04:35:13;;;;;;;0.20;0.20;;;15.10;99.90;;;;;;5002625;28;20038;-70
2022/09/09 04:37:38;;;;;;;0.30;0.30;;;15.10;99.90;;;;;;4998549;28;20446;-70
2022/09/09 04:40:05;;;;;;;0.05;0.05;;;15.10;99.90;;;;;;5001918;28;20129;-71
2022/09/09 04:42:34;;;;;;;0.10;0.10;;;15.10;99.90;;;;;;5010283;28;20077;-71
2022/09/09 04:45:01;;;;;;;0.63;0.63;;;15.10;99.90;;;;;;4998281;28;20042;-71
2022/09/09 04:47:26;;;;;;;0.08;0.08;;;15.20;99.90;;;;;;5008036;28;20042;-71
2022/09/09 04:49:54;;;;;;;0.10;0.10;;;15.10;99.90;;;;;;5013395;28;20049;-71
2022/09/09 04:52:20;;;;;;;0.10;0.10;;;15.10;99.90;;;;;;5008956;28;20045;-71
2022/09/09 04:54:46;;;;;;;0.10;0.10;;;15.10;99.90;;;;;;5000808;28;20053;-71
2022/09/09 04:57:12;;;;;;;0.00;0.00;;;15.20;99.90;;;;;;5012410;28;20048;-70
2022/09/09 04:59:39;;;;;;;0.00;0.00;;;15.20;99.90;;;;;;5009153;28;20050;-70
2022/09/09 05:02:05;;;;;;;0.05;0.05;;;15.20;99.90;;;;;;5005693;28;20038;-70
2022/09/09 05:04:31;;;;;;;0.00;0.00;;;15.20;99.90;;;;;;4994145;28;20050;-70
2022/09/09 05:06:56;;;;;;;0.10;0.10;;;15.20;99.90;;;;;;4995105;28;20140;-71
2022/09/09 05:09:22;;;;;;;0.10;0.10;;;15.20;99.90;;;;;;4996097;28;20092;-70
2022/09/09 05:11:48;;;;;;;0.10;0.10;;;15.20;99.90;;;;;;5012842;28;20038;-70
2022/09/09 05:14:14;;;;;;;0.10;0.10;;;15.10;99.90;;;;;;5008216;28;20038;-70
2022/09/09 05:16:40;;;;;;;0.10;0.10;;;15.10;99.90;;;;;;5000546;28;20522;-70
2022/09/09 05:19:07;;;;;;;0.10;0.10;;;15.10;99.90;;;;;;4991639;28;20061;-70
2022/09/09 05:21:33;;;;;;;0.30;0.20;;;15.10;99.90;;;;;;5001213;28;20180;-70
2022/09/09 05:24:00;;;;;;;0.00;0.00;;;15.20;99.90;;;;;;5004640;28;20486;-71
2022/09/09 05:26:26;;;;;;;0.00;0.00;;;15.20;99.90;;;;;;5010933;28;20057;-71
2022/09/09 05:28:52;;;;;;;0.00;0.00;;;15.10;99.90;;;;;;4994224;28;20050;-70
2022/09/09 05:31:19;;;;;;;0.22;0.22;;;15.20;99.90;;;;;;5009280;28;20076;-70
2022/09/09 05:33:46;;;;;;;0.10;0.10;;;15.20;99.90;;;;;;5011518;28;20440;-71
2022/09/09 05:36:17;;;;;;;0.43;0.43;;;15.20;99.90;;;;;;5011511;28;20520;-71
2022/09/09 05:38:43;;;;;;;0.10;0.10;;;15.20;99.90;;;;;;4993311;28;20502;-71
2022/09/09 05:41:11;;;;;;;0.10;0.10;;;15.20;99.90;;;;;;5007653;28;20049;-71
2022/09/09 05:43:38;;;;;;;0.10;0.10;;;15.20;99.90;;;;;;5012927;28;20046;-71
2022/09/09 05:46:08;;;;;;;0.00;0.00;;;15.20;99.90;;;;;;5012719;28;20042;-71
2022/09/09 05:48:43;;;;;;;0.75;0.63;;;15.10;99.90;;;;;;5006845;28;20043;-71
2022/09/09 05:51:17;;;;;;;0.10;0.10;;;15.20;99.90;;;;;;4990713;28;20046;-72
2022/09/09 05:53:43;;;;;;;0.10;0.10;;;15.10;99.90;;;;;;4995045;28;20043;-71
2022/09/09 05:56:12;;;;;;;0.00;0.00;;;15.10;99.90;;;;;;4993771;28;20045;-72
2022/09/09 05:58:38;;;;;;;0.40;0.32;;;15.20;99.90;;;;;;5011237;28;20088;-72
2022/09/09 06:01:07;;;;;;;0.43;0.40;;;15.10;99.90;;;;;;5006112;28;20497;-72
2022/09/09 06:03:34;;;;;;;0.00;0.00;;;15.20;99.90;;;;;;4994086;28;20058;-71
2022/09/09 06:06:02;;;;;;;0.28;0.28;;;15.20;99.90;;;;;;4991888;28;20085;-71
2022/09/09 06:08:28;;;;;;;0.10;0.10;;;15.20;99.90;;;;;;5007666;28;20048;-71
2022/09/09 06:10:53;;;;;;;0.10;0.10;;;15.20;99.90;;;;;;5011537;28;20045;-71
2022/09/09 06:13:19;;;;;;;0.10;0.10;;;15.20;99.90;;;;;;5009385;28;20037;-72
2022/09/09 06:15:51;;;;;;;0.00;0.00;;;15.30;99.90;;;;;;4997041;28;20124;-71
2022/09/09 06:18:18;;;;;;;0.20;0.20;;;15.30;99.90;;;;;;4991093;28;20414;-71
2022/09/09 06:20:57;;;;;;;0.10;0.10;;;15.40;99.90;;;;;;4994510;28;20100;-71
2022/09/09 06:23:23;;;;;;;0.40;0.40;;;15.40;99.90;;;;;;5002629;28;20065;-71
2022/09/09 06:25:49;;;;;;;0.43;0.32;;;15.40;99.90;;;;;;4992788;28;20077;-71
2022/09/09 06:28:15;;;;;;;0.52;0.35;;;15.40;99.90;;;;;;5011619;28;20044;-71
2022/09/09 06:30:41;;;;;;;0.32;0.32;;;15.40;99.90;;;;;;5000008;28;20470;-71
2022/09/09 06:33:07;;;;;;;0.20;0.20;;;15.40;99.90;;;;;;4993409;28;20446;-72
2022/09/09 06:35:32;;;;;;;0.80;0.65;;;15.50;99.90;;;;;;4992116;28;20038;-72
2022/09/09 06:37:58;;;;;;;0.30;0.30;;;15.50;99.90;;;;;;4993248;28;21398;-72
2022/09/09 06:40:24;;;;;;;0.30;0.30;;;15.50;99.90;;;;;;5005425;28;20069;-72
2022/09/09 06:42:50;;;;;;;0.25;0.25;;;15.50;99.90;;;;;;4998549;28;20041;-72
2022/09/09 06:45:16;;;;;;;0.52;0.52;;;15.50;99.90;;;;;;5001981;28;20042;-72
2022/09/09 06:47:42;;;;;;;0.28;0.28;;;15.50;99.90;;;;;;4992017;28;20498;-72
2022/09/09 06:50:08;;;;;;;0.10;0.10;;;15.50;99.90;;;;;;4990893;28;20050;-72
2022/09/09 06:52:33;;;;;;;0.20;0.20;;;15.50;99.90;;;;;;5007993;28;20052;-72
2022/09/09 06:54:59;;;;;;;0.10;0.10;;;15.50;99.90;;;;;;5007674;28;20033;-71
2022/09/09 06:57:24;;;;;;;0.10;0.10;;;15.60;99.90;;;;;;5008840;28;20054;-71
2022/09/09 06:59:50;;;;;;;0.20;0.20;;;15.50;99.90;;;;;;5002650;28;20071;-71
2022/09/09 07:02:16;;;;;;;0.10;0.10;;;15.50;99.90;;;;;;5001342;28;20153;-71
2022/09/09 07:04:41;;;;;;;1.13;0.50;;;15.50;99.90;;;;;;5007435;28;23847;-71
2022/09/09 07:07:09;;;;;;;0.10;0.10;;;15.50;99.90;;;;;;4990500;28;20490;-71
2022/09/09 07:09:35;;;;;;;0.00;0.00;;;15.50;99.90;;;;;;5002047;28;20542;-71
2022/09/09 07:12:01;;;;;;;0.10;0.10;;;15.50;99.90;;;;;;5003669;28;20038;-71
2022/09/09 07:14:27;;;;;;;0.10;0.10;;;15.60;99.90;;;;;;5008454;28;20042;-70
2022/09/09 07:16:53;;;;;;;0.10;0.10;;;15.60;99.90;;;;;;5010472;28;20046;-70
2022/09/09 07:19:18;;;;;;;0.20;0.20;;;15.60;99.90;;;;;;5003463;28;20053;-70
2022/09/09 07:21:44;;;;;;;0.10;0.10;;;15.60;99.90;;;;;;4994636;28;20046;-70
2022/09/09 07:24:10;;;;;;;0.30;0.25;;;15.60;99.90;;;;;;5002729;28;20038;-70
2022/09/09 07:26:37;;;;;;;0.03;0.03;;;15.60;99.90;;;;;;5009056;28;20046;-70
2022/09/09 07:29:03;;;;;;;0.70;0.70;;;15.70;99.90;;;;;;5009448;28;20045;-71
2022/09/09 07:31:32;;;;;;;1.00;0.73;;;15.70;99.90;;;;;;5010817;28;20125;-70
2022/09/09 07:33:59;;;;;;;0.20;0.20;;;15.80;99.90;;;;;;5007097;28;20057;-71
2022/09/09 07:36:26;;;;;;;0.10;0.10;;;15.80;99.90;;;;;;5001126;28;20050;-70
2022/09/09 07:38:57;;;;;;;0.82;0.50;;;15.80;99.90;;;;;;5011018;28;20054;-70
2022/09/09 07:41:26;;;;;;;0.10;0.10;;;15.80;99.90;;;;;;5008034;28;20049;-70
2022/09/09 07:43:55;;;;;;;0.20;0.20;;;15.80;99.90;;;;;;5008274;28;20052;-70
2022/09/09 07:46:23;;;;;;;0.20;0.20;;;15.90;99.90;;;;;;5009214;28;20038;-70
2022/09/09 07:48:52;;;;;;;0.10;0.10;;;16.00;99.90;;;;;;5007934;28;20489;-70
2022/09/09 07:51:24;;;;;;;0.05;0.05;;;16.00;99.90;;;;;;5002783;28;20068;-70
2022/09/09 07:53:55;;;;;;;0.10;0.10;;;16.00;99.90;;;;;;4990034;28;20057;-71
2022/09/09 07:56:23;;;;;;;0.28;0.28;;;16.00;99.90;;;;;;4998045;28;20061;-71
2022/09/09 07:58:50;;;;;;;0.20;0.20;;;16.00;99.90;;;;;;5008928;28;20513;-71
2022/09/09 08:01:18;;;;;;;0.10;0.10;;;16.10;99.90;;;;;;5008936;28;20079;-70
2022/09/09 08:03:45;;;;;;;0.20;0.20;;;16.10;99.90;;;;;;5006586;28;20112;-71
2022/09/09 08:06:12;;;;;;;0.13;0.13;;;16.10;99.90;;;;;;5003090;28;20121;-71
2022/09/09 08:08:38;;;;;;;0.00;0.00;;;16.20;99.90;;;;;;4992719;28;20042;-70
2022/09/09 08:11:14;;;;;;;0.10;0.10;;;16.30;99.90;;;;;;4997258;28;20057;-71
2022/09/09 08:13:42;;;;;;;0.00;0.00;;;16.40;99.90;;;;;;5008332;28;20072;-70
2022/09/09 08:16:21;;;;;;;0.05;0.05;;;16.50;99.90;;;;;;5007136;28;20084;-70
2022/09/09 08:18:48;;;;;;;0.08;0.08;;;16.60;99.90;;;;;;5014488;28;20687;-70
2022/09/09 08:21:20;;;;;;;0.20;0.20;;;16.60;99.90;;;;;;5008304;28;20049;-70
2022/09/09 08:23:47;;;;;;;0.40;0.40;;;16.70;99.90;;;;;;4994759;28;20078;-70
2022/09/09 08:26:19;;;;;;;0.08;0.08;;;16.80;99.90;;;;;;5013073;28;20050;-70
2022/09/09 08:28:45;;;;;;;0.57;0.57;;;16.80;99.90;;;;;;5013432;28;20050;-70
2022/09/09 08:31:28;;;;;;;0.00;0.00;;;16.90;99.90;;;;;;5000324;28;20101;-70
2022/09/09 08:33:54;;;;;;;0.10;0.10;;;16.90;99.90;;;;;;5013508;28;20049;-70
2022/09/09 08:36:22;;;;;;;0.10;0.10;;;17.00;99.90;;;;;;5013186;28;20065;-70
2022/09/09 08:38:50;;;;;;;0.17;0.17;;;17.10;99.90;;;;;;4998512;28;20068;-70
2022/09/09 08:41:42;;;;;;;1.10;1.00;;;17.10;99.90;;;;;;5006333;28;20074;-70
2022/09/09 08:44:30;;;;;;;0.10;0.10;;;17.30;99.90;;;;;;5010572;28;20046;-71
2022/09/09 08:47:31;;;;;;;0.00;0.00;;;17.40;99.90;;;;;;5012961;28;20050;-71
2022/09/09 08:50:07;;;;;;;0.10;0.10;;;17.50;99.90;;;;;;5005843;28;20053;-71
2022/09/09 08:52:44;;;;;;;0.30;0.30;;;17.70;99.90;;;;;;5001277;28;20069;-71
2022/09/09 08:55:35;;;;;;;0.20;0.20;;;17.60;99.90;;;;;;4997197;28;20042;-71
2022/09/09 08:58:25;;;;;;;0.05;0.05;;;17.70;99.90;;;;;;5011105;28;20627;-71
2022/09/09 09:01:12;;;;;;;0.00;0.00;;;17.70;99.90;;;;;;4995161;28;20515;-71
2022/09/09 09:03:51;;;;;;;0.35;0.15;;;17.80;99.90;;;;;;4994301;28;20050;-70
2022/09/09 09:06:36;;;;;;;0.10;0.10;;;17.80;99.90;;;;;;5002396;28;20104;-71
2022/09/09 09:09:26;;;;;;;0.10;0.10;;;17.90;99.90;;;;;;5001585;28;20518;-71
2022/09/09 09:11:54;;;;;;;0.10;0.10;;;17.80;99.90;;;;;;5006113;28;20809;-70
2022/09/09 09:14:25;;;;;;;0.65;0.60;;;17.70;99.90;;;;;;5007141;28;20501;-70
2022/09/09 09:16:56;;;;;;;0.10;0.10;;;17.70;99.90;;;;;;5008623;28;20125;-71
2022/09/09 09:19:23;;;;;;;0.40;0.40;;;17.70;99.90;;;;;;5008520;28;20046;-71
2022/09/09 09:21:51;;;;;;;0.10;0.10;;;17.50;99.90;;;;;;4996574;28;20449;-71
2022/09/09 09:24:20;;;;;;;0.08;0.08;;;17.50;99.90;;;;;;4996571;28;20392;-72
2022/09/09 09:26:46;;;;;;;0.90;0.73;;;17.40;99.90;;;;;;5000405;28;20113;-70
2022/09/09 09:29:14;;;;;;;0.93;0.75;;;17.40;99.90;;;;;;4992883;28;20046;-71
2022/09/09 09:31:48;;;;;;;0.00;0.00;;;17.40;99.90;;;;;;4996875;28;20053;-70
2022/09/09 09:34:14;;;;;;;0.30;0.30;;;17.30;99.90;;;;;;5002974;28;20124;-71
2022/09/09 09:37:01;;;;;;;0.10;0.10;;;17.40;99.90;;;;;;4998367;28;20818;-71
2022/09/09 09:39:37;;;;;;;1.00;0.80;;;17.30;99.90;;;;;;5010521;28;20046;-71
2022/09/09 09:42:15;;;;;;;0.00;0.00;;;17.30;99.90;;;;;;4994109;28;20061;-71
2022/09/09 09:44:41;;;;;;;0.10;0.10;;;17.40;99.90;;;;;;4993477;28;20093;-71
2022/09/09 09:47:15;;;;;;;0.70;0.55;;;17.50;99.90;;;;;;4991915;28;20057;-71
2022/09/09 09:49:55;;;;;;;7.53;0.77;;;17.50;99.90;;;;;;5005834;28;20041;-71
2022/09/09 09:52:23;;;;;;;0.10;0.10;;;17.50;99.90;;;;;;5000095;28;20042;-71
2022/09/09 09:54:50;;;;;;;0.17;0.17;;;17.70;99.90;;;;;;5001644;28;20034;-71
2022/09/09 09:57:17;;;;;;;0.00;0.00;;;17.90;99.90;;;;;;4998483;28;20049;-70
2022/09/09 09:59:43;;;;;;;0.10;0.10;;;17.90;99.90;;;;;;5007467;28;20085;-71
2022/09/09 10:02:14;;;;;;;0.00;0.00;;;18.00;99.90;;;;;;5001846;28;20085;-71
2022/09/09 10:04:41;;;;;;;0.00;0.00;;;18.00;99.90;;;;;;5001099;28;20108;-70
2022/09/09 10:07:21;;;;;;;1.27;1.08;;;18.00;99.90;;;;;;5009641;28;20049;-70
2022/09/09 10:09:55;;;;;;;0.52;0.52;;;18.00;99.90;;;;;;5011139;28;20049;-70
2022/09/09 10:12:55;;;;;;;0.10;0.10;;;17.90;99.90;;;;;;5004393;28;20044;-71
2022/09/09 10:15:24;;;;;;;0.00;0.00;;;17.90;99.90;;;;;;4995489;28;20072;-70
2022/09/09 10:18:17;;;;;;;0.10;0.10;;;17.90;99.90;;;;;;5006494;28;20618;-70
2022/09/09 10:21:02;;;;;;;0.32;0.32;;;18.10;99.90;;;;;;5007418;28;20038;-71
2022/09/09 10:24:06;;;;;;;0.40;0.38;;;18.50;99.90;;;;;;4997120;28;20038;-71
2022/09/09 10:26:55;;;;;;;0.00;0.00;;;18.90;99.90;;;;;;4996055;28;20081;-71
2022/09/09 10:29:43;;;;;;;0.00;0.00;;;19.10;99.90;;;;;;5000580;28;20086;-71
2022/09/09 10:32:24;;;;;;;1.00;0.85;;;19.10;99.90;;;;;;4995719;28;20050;-71
2022/09/09 10:35:09;;;;;;;7.57;0.70;;;18.90;99.90;;;;;;5006298;28;20046;-72
2022/09/09 10:38:00;;;;;;;0.10;0.10;;;18.90;99.90;;;;;;5003060;28;20042;-71
2022/09/09 10:40:44;;;;;;;0.20;0.20;;;18.80;99.90;;;;;;5005163;28;20482;-72
2022/09/09 10:43:24;;;;;;;4.10;2.58;;;18.90;99.90;;;;;;4993012;28;20053;-71
2022/09/09 10:45:59;;;;;;;1.65;1.35;;;19.00;99.90;;;;;;4991540;28;20979;-72
2022/09/09 10:48:47;;;;;;;0.10;0.10;;;19.50;99.90;;;;;;5009823;28;20093;-71
2022/09/09 10:51:31;;;;;;;0.00;0.00;;;20.00;99.90;;;;;;5008764;28;20046;-71
2022/09/09 10:54:29;;;;;;;0.10;0.10;;;20.00;99.90;;;;;;5005055;28;20140;-71
2022/09/09 10:57:02;;;;;;;0.15;0.15;;;19.90;99.90;;;;;;5010002;28;20050;-72
2022/09/09 10:59:34;;;;;;;0.00;0.00;;;19.80;99.90;;;;;;5003605;28;20487;-71
2022/09/09 11:02:27;;;;;;;0.13;0.13;;;19.70;99.90;;;;;;4991885;28;20046;-71
2022/09/09 11:04:59;;;;;;;0.10;0.10;;;20.00;99.90;;;;;;4990163;28;20046;-72
2022/09/09 11:07:38;;;;;;;0.20;0.20;;;20.40;99.90;;;;;;5011428;28;20046;-72
2022/09/09 11:10:14;;;;;;;0.10;0.10;;;20.50;99.90;;;;;;5011603;28;20042;-71
2022/09/09 11:12:43;;;;;;;0.00;0.00;;;20.50;99.90;;;;;;5011365;28;20579;-71
2022/09/09 11:15:36;;;;;;;0.20;0.13;;;20.70;99.90;;;;;;5008364;28;20108;-72
2022/09/09 11:18:04;;;;;;;0.07;0.07;;;20.70;99.90;;;;;;5004795;28;20103;-72
2022/09/09 11:20:32;;;;;;;0.00;0.00;;;20.40;99.90;;;;;;4998588;28;20046;-71
2022/09/09 11:23:25;;;;;;;0.28;0.28;;;20.30;99.90;;;;;;4991425;28;20548;-71
2022/09/09 11:26:03;;;;;;;0.22;0.22;;;20.80;99.90;;;;;;5002881;28;20520;-71
2022/09/09 11:28:38;;;;;;;0.00;0.00;;;20.80;99.90;;;;;;5003978;28;20061;-71
2022/09/09 11:31:26;;;;;;;6.68;0.35;;;21.30;99.90;;;;;;4991414;28;20069;-72
2022/09/09 11:33:57;;;;;;;0.00;0.00;;;21.60;99.90;;;;;;5003680;28;20046;-71
2022/09/09 11:36:34;;;;;;;1.30;1.13;;;21.90;99.90;;;;;;4997448;28;20050;-72
2022/09/09 11:39:46;;;;;;;0.00;0.00;;;22.20;99.90;;;;;;5006715;28;20053;-72
2022/09/09 11:42:11;;;;;;;0.85;0.47;;;22.30;99.90;;;;;;4983666;28;20057;-71
2022/09/09 11:44:37;;;;;;;0.00;0.00;;;22.50;99.90;;;;;;5006256;28;20124;-72
2022/09/09 11:47:03;;;;;;;0.10;0.10;;;22.10;99.90;;;;;;5003136;28;20490;-72
2022/09/09 11:49:42;;;;;;;0.10;0.10;;;22.40;99.90;;;;;;5010004;28;20506;-72
2022/09/09 11:52:26;;;;;;;1.55;0.85;;;22.70;99.90;;;;;;5007653;28;20045;-72
2022/09/09 11:54:55;;;;;;;1.08;0.65;;;23.10;99.90;;;;;;5002156;28;20062;-72
2022/09/09 11:57:35;;;;;;;0.10;0.10;;;23.20;99.90;;;;;;5003040;28;20092;-71
2022/09/09 12:00:01;;;;;;;0.15;0.15;;;23.20;99.90;;;;;;5004364;28;20054;-71
2022/09/09 12:02:31;;;;;;;0.00;0.00;;;23.20;99.90;;;;;;5004826;28;20394;-71
2022/09/09 12:05:11;;;;;;;0.00;0.00;;;23.30;99.90;;;;;;5002602;28;20045;-72
2022/09/09 12:07:58;;;;;;;0.00;0.00;;;22.60;99.90;;;;;;5006989;28;20034;-72
2022/09/09 12:10:29;;;;;;;1.63;0.68;;;22.20;99.90;;;;;;5001025;28;20088;-72
2022/09/09 12:12:55;;;;;;;0.10;0.10;;;21.80;99.90;;;;;;5007333;28;20095;-72
2022/09/09 12:15:28;;;;;;;1.75;1.65;;;21.40;99.90;;;;;;5008107;28;20041;-72
2022/09/09 12:17:57;;;;;;;0.00;0.00;;;21.00;99.90;;;;;;5003374;28;20046;-72
2022/09/09 12:20:26;;;;;;;0.00;0.00;;;20.70;99.90;;;;;;5004359;28;20046;-72
2022/09/09 12:23:13;;;;;;;0.13;0.13;;;20.60;99.90;;;;;;5008611;28;20049;-72
2022/09/09 12:26:09;;;;;;;0.00;0.00;;;20.40;99.90;;;;;;5005590;28;20052;-72
2022/09/09 12:28:54;;;;;;;0.35;0.35;;;20.50;99.90;;;;;;5007239;28;20489;-71
2022/09/09 12:31:32;;;;;;;5.72;1.40;;;20.50;99.90;;;;;;5005669;28;20101;-71
2022/09/09 12:34:11;;;;;;;0.75;0.22;;;20.50;99.90;;;;;;5006833;28;20057;-72
2022/09/09 12:36:39;;;;;;;0.00;0.00;;;20.40;99.90;;;;;;5008178;28;20108;-72
2022/09/09 12:39:36;;;;;;;0.30;0.22;;;20.30;99.90;;;;;;5002951;28;20041;-72
2022/09/09 12:42:04;;;;;;;0.00;0.00;;;20.40;99.90;;;;;;5008218;28;20038;-72
2022/09/09 12:44:30;;;;;;;0.10;0.10;;;20.40;99.90;;;;;;5002064;28;20046;-72
2022/09/09 12:47:00;;;;;;;0.10;0.10;;;20.40;99.90;;;;;;5008163;28;20049;-72
2022/09/09 12:49:29;;;;;;;0.05;0.05;;;20.40;99.90;;;;;;5008115;28;20624;-72
2022/09/09 12:51:57;;;;;;;0.13;0.13;;;20.60;99.90;;;;;;5001767;28;20725;-73
2022/09/09 12:54:23;;;;;;;0.20;0.20;;;21.20;99.90;;;;;;5007811;28;20042;-72
2022/09/09 12:56:49;;;;;;;0.10;0.10;;;21.50;99.90;;;;;;5003587;28;20490;-72
2022/09/09 12:59:40;;;;;;;0.00;0.00;;;21.90;99.90;;;;;;4997840;28;20050;-72
2022/09/09 13:02:31;;;;;;;0.10;0.10;;;22.00;99.90;;;;;;5006438;28;20057;-72
2022/09/09 13:05:13;;;;;;;0.65;0.65;;;22.30;99.90;;;;;;5010058;28;20123;-73
2022/09/09 13:07:38;;;;;;;0.20;0.20;;;21.90;99.90;;;;;;5013857;28;20120;-72
2022/09/09 13:10:04;;;;;;;0.00;0.00;;;21.80;99.90;;;;;;5008210;28;20118;-72
2022/09/09 13:12:30;;;;;;;0.10;0.10;;;22.10;99.90;;;;;;4997881;28;20042;-72
2022/09/09 13:14:56;;;;;;;0.00;0.00;;;21.90;99.90;;;;;;5012846;28;20045;-72
2022/09/09 13:17:24;;;;;;;0.00;0.00;;;21.70;99.90;;;;;;5010154;28;20498;-72